Time;durP1;ratioP1;P1;durP2;ratioP2;P2;SDS_P1;SDS_P2;PMS_P1;PMS_P2;Temp;Humidity;BMP_temperature;BMP_pressure;BME280_temperature;BME280_humidity;BME280_pressure;Samples;Min_cycle;Max_cycle;Signal;HPM_P1;HPM_P2
2023/07/09 00:01:54;;;;;;;8.90;4.85;;;21.20;58.90;;;;;;5029079;28;20018;-74
2023/07/09 00:04:19;;;;;;;8.60;4.60;;;21.10;58.80;;;;;;5028801;28;20032;-75
2023/07/09 00:06:45;;;;;;;9.07;4.60;;;21.10;58.90;;;;;;5028993;28;20397;-76
2023/07/09 00:09:17;;;;;;;8.68;5.10;;;21.10;58.90;;;;;;5028981;28;20029;-75
2023/07/09 00:11:43;;;;;;;8.15;4.70;;;21.10;58.90;;;;;;5029402;28;20018;-75
2023/07/09 00:14:13;;;;;;;9.10;4.85;;;21.00;58.70;;;;;;5029312;28;20048;-76
2023/07/09 00:16:40;;;;;;;9.93;4.75;;;21.10;58.70;;;;;;5028929;28;20025;-75
2023/07/09 00:19:16;;;;;;;5.80;4.35;;;21.10;58.90;;;;;;5028903;28;20393;-75
2023/07/09 00:21:45;;;;;;;8.20;4.95;;;21.00;58.90;;;;;;5028922;28;20032;-75
2023/07/09 00:24:12;;;;;;;6.72;4.25;;;20.90;59.10;;;;;;5028608;28;20029;-77
2023/07/09 00:26:38;;;;;;;7.40;5.05;;;20.90;59.30;;;;;;5029110;28;20030;-76
2023/07/09 00:29:04;;;;;;;7.53;4.78;;;20.90;59.10;;;;;;5028800;28;20025;-76
2023/07/09 00:31:30;;;;;;;7.55;4.90;;;20.90;59.10;;;;;;5028790;28;20056;-76
2023/07/09 00:33:55;;;;;;;6.82;4.80;;;20.90;59.00;;;;;;5028677;28;20474;-76
2023/07/09 00:36:31;;;;;;;6.07;4.40;;;20.80;59.10;;;;;;5028546;28;20025;-77
2023/07/09 00:38:59;;;;;;;5.82;4.35;;;20.80;59.10;;;;;;5028858;28;20106;-78
2023/07/09 00:41:25;;;;;;;6.53;4.30;;;20.70;59.30;;;;;;5028593;28;20057;-75
2023/07/09 00:43:52;;;;;;;6.00;4.40;;;20.70;59.50;;;;;;5028671;28;20026;-75
2023/07/09 00:46:24;;;;;;;8.75;5.32;;;20.60;59.60;;;;;;5028674;28;20030;-75
2023/07/09 00:49:09;;;;;;;6.95;4.43;;;20.50;60.00;;;;;;5029501;28;20508;-75
2023/07/09 00:51:41;;;;;;;5.93;4.78;;;20.50;60.00;;;;;;5028935;28;20116;-75
2023/07/09 00:54:18;;;;;;;6.43;4.38;;;20.60;59.70;;;;;;5028892;28;20021;-77
2023/07/09 00:56:47;;;;;;;6.97;4.43;;;20.60;59.40;;;;;;5028706;28;20033;-75
2023/07/09 00:59:16;;;;;;;8.30;4.82;;;20.70;59.30;;;;;;5028472;28;20025;-76
2023/07/09 01:01:42;;;;;;;7.35;4.32;;;20.60;59.40;;;;;;5028443;28;20029;-75
2023/07/09 01:04:10;;;;;;;7.88;4.60;;;20.50;59.70;;;;;;5028642;28;20037;-75
2023/07/09 01:06:47;;;;;;;7.93;4.68;;;20.50;59.90;;;;;;5028579;28;20018;-74
2023/07/09 01:09:13;;;;;;;7.32;5.07;;;20.50;59.80;;;;;;5028600;28;20389;-75
2023/07/09 01:11:39;;;;;;;7.35;4.90;;;20.60;59.70;;;;;;5028384;28;20393;-77
2023/07/09 01:14:07;;;;;;;8.40;4.75;;;20.60;59.60;;;;;;5028352;28;20030;-74
2023/07/09 01:16:37;;;;;;;8.32;5.07;;;20.60;59.50;;;;;;5028501;28;20060;-78
2023/07/09 01:19:04;;;;;;;6.43;4.85;;;20.60;59.30;;;;;;5028541;28;20030;-80
2023/07/09 01:21:30;;;;;;;8.30;4.70;;;20.50;59.10;;;;;;5028357;28;20465;-79
2023/07/09 01:23:57;;;;;;;10.68;4.78;;;20.50;59.20;;;;;;5028045;28;20029;-79
2023/07/09 01:26:24;;;;;;;6.38;4.45;;;20.40;59.40;;;;;;5028123;28;20390;-80
2023/07/09 01:28:51;;;;;;;6.53;4.90;;;20.40;59.80;;;;;;5027886;28;20030;-78
2023/07/09 01:31:17;;;;;;;10.02;4.82;;;20.40;59.80;;;;;;5028411;28;20075;-80
2023/07/09 01:33:44;;;;;;;6.57;4.40;;;20.30;60.00;;;;;;5028130;28;20412;-75
2023/07/09 01:36:13;;;;;;;11.80;5.10;;;20.40;60.70;;;;;;5029060;28;20025;-76
2023/07/09 01:38:39;;;;;;;9.48;5.22;;;20.40;59.80;;;;;;5031453;28;20021;-75
2023/07/09 01:41:05;;;;;;;8.15;5.00;;;20.30;59.90;;;;;;5031429;28;20040;-77
2023/07/09 01:43:32;;;;;;;7.88;4.60;;;20.20;60.20;;;;;;5031691;28;20377;-75
2023/07/09 01:45:58;;;;;;;12.10;5.22;;;20.20;61.20;;;;;;5031404;28;20036;-74
2023/07/09 01:48:25;;;;;;;8.80;5.22;;;20.20;60.30;;;;;;5031344;28;20086;-79
2023/07/09 01:50:52;;;;;;;8.45;5.10;;;20.10;60.60;;;;;;5031575;28;20078;-74
2023/07/09 01:53:23;;;;;;;8.15;5.22;;;20.10;60.90;;;;;;5031519;28;20385;-79
2023/07/09 01:55:50;;;;;;;8.00;5.05;;;20.00;61.00;;;;;;5031516;28;20047;-79
2023/07/09 01:58:16;;;;;;;9.63;5.10;;;20.00;61.30;;;;;;5031325;28;20036;-79
2023/07/09 02:00:42;;;;;;;11.02;5.45;;;19.90;61.50;;;;;;5031240;28;20021;-80
2023/07/09 02:03:08;;;;;;;11.43;5.10;;;19.90;61.60;;;;;;5031387;28;20117;-80
2023/07/09 02:05:35;;;;;;;10.52;5.47;;;19.90;61.70;;;;;;5031302;28;20028;-78
2023/07/09 02:08:02;;;;;;;9.52;4.95;;;19.90;62.10;;;;;;5031121;28;20116;-76
2023/07/09 02:10:27;;;;;;;6.88;4.53;;;19.80;62.10;;;;;;5031299;28;20382;-80
2023/07/09 02:12:53;;;;;;;7.65;5.28;;;19.80;61.90;;;;;;5031162;28;20036;-78
2023/07/09 02:15:19;;;;;;;7.35;4.90;;;19.80;62.10;;;;;;5031124;28;20021;-78
2023/07/09 02:17:45;;;;;;;7.28;5.00;;;19.80;62.40;;;;;;5031107;28;20072;-78
2023/07/09 02:20:12;;;;;;;9.68;5.53;;;19.80;62.60;;;;;;5031111;28;20049;-77
2023/07/09 02:22:39;;;;;;;11.82;5.05;;;19.70;63.20;;;;;;5030923;28;20473;-80
2023/07/09 02:25:06;;;;;;;11.77;5.95;;;19.70;62.20;;;;;;5031251;28;20128;-75
2023/07/09 02:27:32;;;;;;;7.03;5.00;;;19.80;62.10;;;;;;5030922;28;20053;-74
2023/07/09 02:29:58;;;;;;;8.02;4.80;;;19.80;61.90;;;;;;5030940;28;20030;-77
2023/07/09 02:32:28;;;;;;;8.95;5.05;;;19.80;62.00;;;;;;5030983;28;20025;-78
2023/07/09 02:34:54;;;;;;;7.55;4.95;;;19.80;62.00;;;;;;5030779;28;20029;-80
2023/07/09 02:37:23;;;;;;;7.85;4.90;;;19.80;62.00;;;;;;5031018;28;20025;-79
2023/07/09 02:39:49;;;;;;;8.43;5.18;;;19.80;62.00;;;;;;5030948;28;20022;-78
2023/07/09 02:42:19;;;;;;;6.43;4.90;;;19.80;62.10;;;;;;5030547;28;20486;-78
2023/07/09 02:44:45;;;;;;;7.25;4.38;;;19.80;62.10;;;;;;5030638;28;20433;-78
2023/07/09 02:47:11;;;;;;;7.60;5.00;;;19.80;62.10;;;;;;5030298;28;20030;-73
2023/07/09 02:49:38;;;;;;;7.50;5.00;;;19.70;62.50;;;;;;5030680;28;20036;-72
2023/07/09 02:52:04;;;;;;;9.38;5.32;;;19.70;62.90;;;;;;5030445;28;20029;-73
2023/07/09 02:54:30;;;;;;;9.13;5.22;;;19.60;63.10;;;;;;5032905;28;20036;-73
2023/07/09 02:56:55;;;;;;;9.82;5.20;;;19.60;63.50;;;;;;5030421;28;20389;-73
2023/07/09 02:59:21;;;;;;;9.48;5.75;;;19.50;63.40;;;;;;5030149;28;20045;-73
2023/07/09 03:01:47;;;;;;;8.98;4.78;;;19.50;63.60;;;;;;5030176;28;20152;-73
2023/07/09 03:04:14;;;;;;;7.72;4.80;;;19.50;63.50;;;;;;5030495;28;20031;-74
2023/07/09 03:06:40;;;;;;;5.05;4.30;;;19.50;63.60;;;;;;5030210;28;20029;-73
2023/07/09 03:09:06;;;;;;;8.52;5.38;;;19.50;63.70;;;;;;5030393;28;20036;-73
2023/07/09 03:11:33;;;;;;;7.80;4.57;;;19.50;63.70;;;;;;5030349;28;20021;-73
2023/07/09 03:13:59;;;;;;;7.35;4.90;;;19.50;63.80;;;;;;5030440;28;20022;-73
2023/07/09 03:16:30;;;;;;;8.60;5.10;;;19.50;63.50;;;;;;5030055;28;20025;-73
2023/07/09 03:18:57;;;;;;;7.47;4.68;;;19.50;63.60;;;;;;5030305;28;20045;-73
2023/07/09 03:21:24;;;;;;;7.90;4.85;;;19.40;63.70;;;;;;5030204;28;20082;-72
2023/07/09 03:23:49;;;;;;;7.97;4.72;;;19.40;63.80;;;;;;5030047;28;20124;-78
2023/07/09 03:26:15;;;;;;;7.05;5.03;;;19.40;63.90;;;;;;5029953;28;20112;-81
2023/07/09 03:28:41;;;;;;;9.23;5.45;;;19.30;64.10;;;;;;5029847;28;20041;-79
2023/07/09 03:31:06;;;;;;;6.93;4.95;;;19.30;64.20;;;;;;5030002;28;20025;-78
2023/07/09 03:33:32;;;;;;;6.95;4.88;;;19.40;64.00;;;;;;5029726;28;20029;-80
2023/07/09 03:35:57;;;;;;;10.52;5.18;;;19.40;64.10;;;;;;5030029;28;20017;-76
2023/07/09 03:38:23;;;;;;;6.15;4.80;;;19.40;64.00;;;;;;5029925;28;20523;-73
2023/07/09 03:40:55;;;;;;;5.20;4.38;;;19.40;63.90;;;;;;5013336;28;20026;-74
2023/07/09 03:43:21;;;;;;;8.10;5.20;;;19.50;63.80;;;;;;5029869;28;20049;-74
2023/07/09 03:45:47;;;;;;;6.15;4.32;;;19.40;63.70;;;;;;5029908;28;20040;-73
2023/07/09 03:48:13;;;;;;;7.40;4.93;;;19.50;63.70;;;;;;5029591;28;20033;-73
2023/07/09 03:50:39;;;;;;;9.25;4.65;;;19.50;63.60;;;;;;5029513;28;20029;-73
2023/07/09 03:53:05;;;;;;;8.18;4.85;;;19.50;63.80;;;;;;5029655;28;20022;-74
2023/07/09 03:55:31;;;;;;;8.77;5.07;;;19.50;63.70;;;;;;5029596;28;20025;-73
2023/07/09 03:57:57;;;;;;;7.57;5.28;;;19.50;63.50;;;;;;5029175;28;20029;-79
2023/07/09 04:00:24;;;;;;;7.88;5.13;;;19.50;63.70;;;;;;5028715;28;20357;-76
2023/07/09 04:02:50;;;;;;;7.97;5.32;;;19.40;63.80;;;;;;5029125;28;20033;-80
2023/07/09 04:05:17;;;;;;;6.35;5.18;;;19.30;64.20;;;;;;5029586;28;20018;-80
2023/07/09 04:07:43;;;;;;;7.45;4.80;;;19.30;64.40;;;;;;5029262;28;20032;-80
2023/07/09 04:10:09;;;;;;;7.90;5.35;;;19.30;65.40;;;;;;5029410;28;20022;-80
2023/07/09 04:12:36;;;;;;;6.93;5.15;;;19.30;64.40;;;;;;5029117;28;20021;-80
2023/07/09 04:15:03;;;;;;;6.90;5.10;;;19.30;64.50;;;;;;5029186;28;20430;-79
2023/07/09 04:17:28;;;;;;;7.90;5.25;;;19.30;64.50;;;;;;5028941;28;20128;-80
2023/07/09 04:19:54;;;;;;;10.10;4.78;;;19.30;64.60;;;;;;5029110;28;20064;-79
2023/07/09 04:22:21;;;;;;;7.57;5.70;;;19.30;64.70;;;;;;5029167;28;20367;-80
2023/07/09 04:24:46;;;;;;;11.27;4.97;;;19.30;64.80;;;;;;5028624;28;20022;-79
2023/07/09 04:27:13;;;;;;;7.57;4.63;;;19.20;64.70;;;;;;5028700;28;20520;-79
2023/07/09 04:29:39;;;;;;;5.72;4.63;;;19.40;64.50;;;;;;5028718;28;20426;-80
2023/07/09 04:32:06;;;;;;;8.68;5.05;;;19.30;64.50;;;;;;5029157;28;20029;-80
2023/07/09 04:34:32;;;;;;;7.43;4.78;;;19.50;64.20;;;;;;5028683;28;20021;-80
2023/07/09 04:36:58;;;;;;;8.18;4.97;;;19.50;63.80;;;;;;5028774;28;20025;-81
2023/07/09 04:39:24;;;;;;;9.20;4.97;;;19.60;63.50;;;;;;5028918;28;20026;-81
2023/07/09 04:41:49;;;;;;;8.05;4.78;;;19.60;63.60;;;;;;5028769;28;20057;-82
2023/07/09 04:44:15;;;;;;;7.60;4.90;;;19.60;63.80;;;;;;5029268;28;20029;-80
2023/07/09 04:46:40;;;;;;;7.47;4.95;;;19.60;63.60;;;;;;5028925;28;20021;-82
2023/07/09 04:49:06;;;;;;;8.13;5.20;;;19.60;63.40;;;;;;5028939;28;20424;-79
2023/07/09 04:51:32;;;;;;;8.43;5.00;;;19.60;63.40;;;;;;5028454;28;20026;-80
2023/07/09 04:53:57;;;;;;;8.48;5.15;;;19.60;64.40;;;;;;5028649;28;20500;-76
2023/07/09 04:56:23;;;;;;;8.35;5.20;;;19.60;63.90;;;;;;5028509;28;20098;-76
2023/07/09 04:58:49;;;;;;;11.07;5.03;;;19.60;63.70;;;;;;5028312;28;20021;-74
2023/07/09 05:01:14;;;;;;;8.13;4.50;;;19.60;63.50;;;;;;5028625;28;20025;-74
2023/07/09 05:03:40;;;;;;;9.52;5.10;;;19.80;63.30;;;;;;5028526;28;20162;-75
2023/07/09 05:06:06;;;;;;;7.53;5.28;;;19.80;62.80;;;;;;5028481;28;20028;-74
2023/07/09 05:08:31;;;;;;;7.15;4.78;;;20.00;62.70;;;;;;5028040;28;20392;-74
2023/07/09 05:10:58;;;;;;;7.15;4.90;;;20.10;62.50;;;;;;5013911;28;20363;-75
2023/07/09 05:13:24;;;;;;;6.70;5.00;;;20.00;62.40;;;;;;5031639;28;20026;-74
2023/07/09 05:15:50;;;;;;;13.50;5.63;;;20.10;62.30;;;;;;5031899;28;20021;-74
2023/07/09 05:18:17;;;;;;;8.63;5.22;;;20.20;62.10;;;;;;5032075;28;20029;-74
2023/07/09 05:20:43;;;;;;;6.60;4.15;;;20.30;61.50;;;;;;5032049;28;20032;-74
2023/07/09 05:23:10;;;;;;;7.97;4.82;;;20.50;61.10;;;;;;5031817;28;20025;-73
2023/07/09 05:25:36;;;;;;;5.75;4.55;;;20.70;60.60;;;;;;5031738;28;20025;-73
2023/07/09 05:28:02;;;;;;;10.25;4.68;;;20.90;60.30;;;;;;5031680;28;20366;-72
2023/07/09 05:30:27;;;;;;;9.88;4.93;;;20.90;60.10;;;;;;5031700;28;20021;-73
2023/07/09 05:32:55;;;;;;;9.18;5.15;;;20.90;59.80;;;;;;5031862;28;20028;-73
2023/07/09 05:35:22;;;;;;;7.20;5.20;;;20.90;60.00;;;;;;5031642;28;20427;-74
2023/07/09 05:37:47;;;;;;;7.30;4.22;;;21.00;59.90;;;;;;5031585;28;20071;-74
2023/07/09 05:40:13;;;;;;;11.60;5.07;;;21.00;59.70;;;;;;5031532;28;20435;-76
2023/07/09 05:42:38;;;;;;;7.70;4.57;;;21.20;59.20;;;;;;5031214;28;20053;-74
2023/07/09 05:45:04;;;;;;;5.45;4.35;;;21.30;58.70;;;;;;5031707;28;20026;-74
2023/07/09 05:47:30;;;;;;;7.18;4.57;;;21.50;58.40;;;;;;5031385;28;20076;-74
2023/07/09 05:49:56;;;;;;;7.60;5.03;;;21.60;58.10;;;;;;5031404;28;20082;-73
2023/07/09 05:52:23;;;;;;;8.68;4.60;;;21.80;57.80;;;;;;5031175;28;20030;-73
2023/07/09 05:54:49;;;;;;;5.55;4.63;;;22.00;57.20;;;;;;5031123;28;20082;-74
2023/07/09 05:57:15;;;;;;;7.25;4.93;;;22.20;56.90;;;;;;5031058;28;20057;-73
2023/07/09 05:59:41;;;;;;;7.47;4.60;;;22.30;56.60;;;;;;5031297;28;20049;-74
2023/07/09 06:02:11;;;;;;;8.55;4.78;;;22.30;56.60;;;;;;5031330;28;20022;-76
2023/07/09 06:04:37;;;;;;;8.88;4.82;;;22.40;56.30;;;;;;5031096;28;20022;-75
2023/07/09 06:07:06;;;;;;;7.60;4.68;;;22.50;56.30;;;;;;5030979;28;20036;-76
2023/07/09 06:09:32;;;;;;;6.43;4.70;;;22.50;56.40;;;;;;5032190;28;20231;-76
2023/07/09 06:11:58;;;;;;;8.88;4.95;;;22.60;55.90;;;;;;5033706;28;20095;-76
2023/07/09 06:14:24;;;;;;;9.60;5.20;;;22.70;55.70;;;;;;5032687;28;20033;-78
2023/07/09 06:16:50;;;;;;;6.43;4.47;;;22.80;55.10;;;;;;5030908;28;20140;-77
2023/07/09 06:19:15;;;;;;;6.50;4.35;;;22.90;54.90;;;;;;5031052;28;20022;-77
2023/07/09 06:21:41;;;;;;;11.38;4.55;;;23.10;54.60;;;;;;5030566;28;20482;-78
2023/07/09 06:24:08;;;;;;;7.53;4.32;;;23.20;53.70;;;;;;5031207;28;20029;-79
2023/07/09 06:26:34;;;;;;;7.47;5.10;;;23.20;54.20;;;;;;5030791;28;20145;-79
2023/07/09 06:28:59;;;;;;;8.32;4.88;;;23.30;54.50;;;;;;5030910;28;20041;-81
2023/07/09 06:31:25;;;;;;;7.15;4.70;;;23.40;54.30;;;;;;5030967;28;20106;-81
2023/07/09 06:33:51;;;;;;;7.68;4.80;;;23.50;54.20;;;;;;5030923;28;20033;-79
2023/07/09 06:36:18;;;;;;;6.65;4.35;;;23.60;53.80;;;;;;5030801;28;20394;-80
2023/07/09 06:38:44;;;;;;;8.52;4.72;;;23.80;53.70;;;;;;5029997;28;20033;-74
2023/07/09 06:41:10;;;;;;;7.43;4.72;;;24.00;52.60;;;;;;5030815;28;20482;-75
2023/07/09 06:43:38;;;;;;;6.38;4.40;;;24.10;52.30;;;;;;5030808;28;20116;-75
2023/07/09 06:46:05;;;;;;;7.30;4.38;;;24.20;52.00;;;;;;5030562;28;20029;-75
2023/07/09 06:48:32;;;;;;;8.25;4.47;;;24.30;51.90;;;;;;5014178;28;20154;-74
2023/07/09 06:50:59;;;;;;;9.27;4.28;;;24.50;52.10;;;;;;5030363;28;20022;-74
2023/07/09 06:53:25;;;;;;;6.43;3.88;;;24.70;52.10;;;;;;5030648;28;20120;-75
2023/07/09 06:55:55;;;;;;;6.65;4.20;;;24.80;51.40;;;;;;5030805;28;20022;-75
2023/07/09 06:58:28;;;;;;;6.70;4.57;;;25.00;51.00;;;;;;5032076;28;20154;-76
2023/07/09 07:01:03;;;;;;;7.00;4.32;;;25.10;50.10;;;;;;5091020;27;20042;-74
2023/07/09 07:03:29;;;;;;;7.57;4.25;;;25.20;49.80;;;;;;5030251;28;20026;-76
2023/07/09 07:06:22;;;;;;;6.88;4.25;;;25.40;49.40;;;;;;5030082;28;20025;-76
2023/07/09 07:09:13;;;;;;;8.65;4.70;;;25.50;48.80;;;;;;5032355;27;20527;-75
2023/07/09 07:11:42;;;;;;;7.95;4.55;;;25.70;48.30;;;;;;5030445;28;20163;-74
2023/07/09 07:14:07;;;;;;;10.50;4.68;;;25.80;48.00;;;;;;5030002;28;20456;-74
2023/07/09 07:16:33;;;;;;;6.97;4.15;;;25.90;47.90;;;;;;5030198;28;20025;-74
2023/07/09 07:18:59;;;;;;;6.15;4.40;;;26.10;47.70;;;;;;5030254;28;20059;-74
2023/07/09 07:21:27;;;;;;;6.50;3.90;;;26.20;47.40;;;;;;5030173;28;20071;-76
2023/07/09 07:23:53;;;;;;;6.22;4.45;;;26.40;47.70;;;;;;5030016;28;20029;-73
2023/07/09 07:26:19;;;;;;;6.60;4.55;;;26.50;46.20;;;;;;5029901;28;20033;-78
2023/07/09 07:28:44;;;;;;;6.68;4.22;;;26.60;44.20;;;;;;5029613;28;20044;-76
2023/07/09 07:31:11;;;;;;;5.93;4.15;;;26.70;44.20;;;;;;5030020;28;20025;-76
2023/07/09 07:33:39;;;;;;;6.53;4.00;;;26.90;44.20;;;;;;5028771;28;20033;-76
2023/07/09 07:36:05;;;;;;;6.60;4.43;;;27.00;44.30;;;;;;5029552;28;20021;-76
2023/07/09 07:38:31;;;;;;;6.30;4.57;;;27.10;42.20;;;;;;5029362;28;20021;-76
2023/07/09 07:40:56;;;;;;;5.53;4.07;;;27.30;42.20;;;;;;5029322;28;20442;-78
2023/07/09 07:43:22;;;;;;;7.93;4.18;;;27.30;41.60;;;;;;5029463;28;20036;-75
2023/07/09 07:45:49;;;;;;;8.35;3.90;;;27.40;41.60;;;;;;5029765;28;20036;-76
2023/07/09 07:48:15;;;;;;;8.75;4.10;;;27.60;41.30;;;;;;5029558;28;20057;-77
2023/07/09 07:50:40;;;;;;;9.73;5.10;;;27.70;40.30;;;;;;5029471;28;20426;-77
2023/07/09 07:53:07;;;;;;;8.90;4.50;;;27.80;40.00;;;;;;5029261;28;20385;-76
2023/07/09 07:55:33;;;;;;;6.15;4.15;;;27.80;38.90;;;;;;5028840;28;20030;-76
2023/07/09 07:58:02;;;;;;;7.57;4.35;;;27.80;38.80;;;;;;5029207;28;20481;-76
2023/07/09 08:00:28;;;;;;;9.65;4.18;;;27.90;37.70;;;;;;5029474;28;20053;-77
2023/07/09 08:02:54;;;;;;;5.30;3.17;;;28.00;36.40;;;;;;5029226;28;20463;-75
2023/07/09 08:05:19;;;;;;;6.07;3.15;;;28.00;35.80;;;;;;5029515;28;20028;-76
2023/07/09 08:07:45;;;;;;;7.60;3.50;;;28.10;35.30;;;;;;5029404;28;20034;-76
2023/07/09 08:10:12;;;;;;;4.22;3.53;;;28.20;35.30;;;;;;5029120;28;20029;-76
2023/07/09 08:12:40;;;;;;;6.50;3.63;;;28.30;34.70;;;;;;5012537;28;20061;-77
2023/07/09 08:15:07;;;;;;;6.38;3.38;;;28.40;34.70;;;;;;5029337;28;20025;-77
2023/07/09 08:17:32;;;;;;;6.13;3.92;;;28.40;34.30;;;;;;5012751;28;20061;-77
2023/07/09 08:19:58;;;;;;;7.35;4.00;;;28.50;34.30;;;;;;5029368;28;20057;-77
2023/07/09 08:22:25;;;;;;;4.65;2.85;;;28.40;33.50;;;;;;5029030;28;20132;-77
2023/07/09 08:24:51;;;;;;;4.97;3.25;;;28.60;33.40;;;;;;5028981;28;20036;-76
2023/07/09 08:27:19;;;;;;;7.47;3.67;;;28.60;33.10;;;;;;5028825;28;20029;-76
2023/07/09 08:29:45;;;;;;;6.22;3.60;;;28.70;33.20;;;;;;5029227;28;20489;-77
2023/07/09 08:32:12;;;;;;;6.70;3.65;;;28.70;33.30;;;;;;5029065;28;20477;-76
2023/07/09 08:34:40;;;;;;;4.47;3.00;;;28.70;33.10;;;;;;5028919;28;20030;-76
2023/07/09 08:37:07;;;;;;;4.70;3.03;;;28.80;32.60;;;;;;5028902;28;20030;-83
2023/07/09 08:39:34;;;;;;;5.68;3.17;;;28.90;33.10;;;;;;5028823;28;20381;-79
2023/07/09 08:42:07;;;;;;;5.90;3.22;;;29.10;32.40;;;;;;5028493;28;20045;-77
2023/07/09 08:45:07;;;;;;;5.10;2.97;;;29.10;32.50;;;;;;5028199;28;20085;-75
2023/07/09 08:47:50;;;;;;;6.70;3.72;;;29.30;32.50;;;;;;5028444;28;20029;-76
2023/07/09 08:50:21;;;;;;;3.60;2.63;;;29.30;31.80;;;;;;5028809;28;20021;-74
2023/07/09 08:52:49;;;;;;;6.22;3.28;;;29.40;32.10;;;;;;5028678;28;20029;-72
2023/07/09 08:55:16;;;;;;;4.07;3.10;;;29.50;32.00;;;;;;5028639;28;20022;-72
2023/07/09 08:58:17;;;;;;;5.50;2.90;;;29.70;32.10;;;;;;5028530;28;20029;-73
2023/07/09 09:00:55;;;;;;;3.90;3.38;;;29.90;31.70;;;;;;5027389;28;20050;-79
2023/07/09 09:03:50;;;;;;;3.90;2.92;;;30.00;32.10;;;;;;5029400;28;20064;-81
2023/07/09 09:06:37;;;;;;;6.68;3.05;;;30.00;31.90;;;;;;5028838;28;20129;-74
2023/07/09 09:09:20;;;;;;;4.78;2.97;;;30.10;29.40;;;;;;5028587;28;20484;-74
2023/07/09 09:11:53;;;;;;;4.45;2.97;;;30.20;31.40;;;;;;5028283;28;20028;-81
2023/07/09 09:14:41;;;;;;;5.30;3.20;;;30.20;30.20;;;;;;5028418;28;20026;-79
2023/07/09 09:17:13;;;;;;;7.65;3.00;;;30.20;29.80;;;;;;5029608;28;20152;-79
2023/07/09 09:20:01;;;;;;;3.42;2.63;;;30.30;30.60;;;;;;5029607;28;20129;-77
2023/07/09 09:22:43;;;;;;;5.30;2.97;;;30.40;30.70;;;;;;5029717;28;20022;-77
2023/07/09 09:25:15;;;;;;;6.40;3.05;;;30.50;30.20;;;;;;5029566;28;20101;-73
2023/07/09 09:27:41;;;;;;;4.90;3.00;;;30.60;30.50;;;;;;5029322;28;20033;-78
2023/07/09 09:30:25;;;;;;;4.80;2.85;;;30.70;30.20;;;;;;5029100;28;20028;-81
2023/07/09 09:33:02;;;;;;;7.20;2.65;;;30.70;30.10;;;;;;5029505;28;20048;-78
2023/07/09 09:35:36;;;;;;;3.22;2.45;;;30.70;27.30;;;;;;5029649;28;20026;-80
2023/07/09 09:38:08;;;;;;;4.40;2.73;;;30.60;27.40;;;;;;5029395;28;20094;-76
2023/07/09 09:40:35;;;;;;;5.10;2.80;;;30.70;28.50;;;;;;5029416;28;20030;-77
2023/07/09 09:43:02;;;;;;;6.47;2.78;;;30.70;28.80;;;;;;5029210;28;20057;-73
2023/07/09 09:45:34;;;;;;;4.05;2.45;;;30.70;27.70;;;;;;5029570;28;20022;-80
2023/07/09 09:48:02;;;;;;;5.40;2.83;;;30.70;27.20;;;;;;5029465;28;20121;-80
2023/07/09 09:50:31;;;;;;;5.55;2.58;;;30.70;27.70;;;;;;5028531;28;20029;-73
2023/07/09 09:52:59;;;;;;;4.45;2.75;;;30.80;27.70;;;;;;5029174;28;20020;-75
2023/07/09 09:55:29;;;;;;;3.65;2.65;;;31.00;27.90;;;;;;5029213;28;20029;-72
2023/07/09 09:57:56;;;;;;;5.03;2.70;;;31.10;26.90;;;;;;5031373;28;20104;-74
2023/07/09 10:00:24;;;;;;;5.90;3.10;;;31.20;28.20;;;;;;5032489;28;20534;-73
2023/07/09 10:02:50;;;;;;;5.15;3.05;;;31.30;27.00;;;;;;5032384;28;20085;-73
2023/07/09 10:05:20;;;;;;;5.75;3.20;;;31.40;26.80;;;;;;5031280;28;20438;-81
2023/07/09 10:08:00;;;;;;;7.32;3.13;;;31.50;27.00;;;;;;5032503;28;20030;-73
2023/07/09 10:10:30;;;;;;;4.32;3.03;;;31.60;26.90;;;;;;5032521;28;20026;-79
2023/07/09 10:13:34;;;;;;;3.15;2.45;;;31.70;26.20;;;;;;5032184;28;20081;-82
2023/07/09 10:16:10;;;;;;;4.93;3.17;;;31.90;25.90;;;;;;5031897;28;20044;-82
2023/07/09 10:18:50;;;;;;;7.22;3.13;;;31.90;24.30;;;;;;5028753;28;20373;-75
2023/07/09 10:21:31;;;;;;;5.07;2.83;;;31.80;24.40;;;;;;5029337;28;20478;-80
2023/07/09 10:24:05;;;;;;;4.40;2.92;;;31.70;24.60;;;;;;5029476;28;20020;-74
2023/07/09 10:26:35;;;;;;;6.03;3.25;;;31.70;24.50;;;;;;5031788;28;20036;-74
2023/07/09 10:29:37;;;;;;;6.82;3.25;;;31.80;23.90;;;;;;5029649;28;20029;-82
2023/07/09 10:32:18;;;;;;;6.28;3.03;;;31.80;22.50;;;;;;5030017;28;20378;-77
2023/07/09 10:34:57;;;;;;;5.53;3.08;;;31.90;23.80;;;;;;5030001;28;20025;-72
2023/07/09 10:37:25;;;;;;;7.38;3.13;;;32.20;25.40;;;;;;5030146;28;20026;-72
2023/07/09 10:39:56;;;;;;;4.70;3.20;;;32.50;24.20;;;;;;5031577;28;20030;-72
2023/07/09 10:42:32;;;;;;;6.05;3.30;;;32.80;22.50;;;;;;5029357;28;20042;-80
2023/07/09 10:45:03;;;;;;;6.72;3.10;;;33.00;23.10;;;;;;5028996;28;20137;-72
2023/07/09 10:47:34;;;;;;;5.60;3.33;;;33.30;22.80;;;;;;5031784;28;20079;-72
2023/07/09 10:50:02;;;;;;;5.00;3.08;;;33.40;23.20;;;;;;5029034;28;20028;-73
2023/07/09 10:52:36;;;;;;;4.55;3.13;;;33.40;21.50;;;;;;5031580;28;20030;-71
2023/07/09 10:55:08;;;;;;;8.38;3.03;;;33.60;21.00;;;;;;5031859;28;20504;-73
2023/07/09 10:57:54;;;;;;;5.43;3.17;;;33.60;20.60;;;;;;5031949;28;20507;-71
2023/07/09 11:00:21;;;;;;;5.43;3.05;;;33.30;21.30;;;;;;5031514;28;20025;-79
2023/07/09 11:02:58;;;;;;;8.20;3.63;;;33.30;21.80;;;;;;5031413;28;20375;-79
2023/07/09 11:05:24;;;;;;;7.43;3.47;;;33.30;20.70;;;;;;5031625;28;20026;-80
2023/07/09 11:08:00;;;;;;;4.57;3.05;;;33.40;21.20;;;;;;5031351;28;20492;-76
2023/07/09 11:10:37;;;;;;;4.47;3.00;;;33.60;22.00;;;;;;5031708;28;20025;-78
2023/07/09 11:13:17;;;;;;;7.65;3.40;;;33.80;22.00;;;;;;5031672;28;20025;-79
2023/07/09 11:15:47;;;;;;;5.57;3.17;;;34.00;21.00;;;;;;5031584;28;20078;-80
2023/07/09 11:18:26;;;;;;;6.85;3.08;;;34.00;20.20;;;;;;5031602;28;20022;-81
2023/07/09 11:21:06;;;;;;;6.00;3.40;;;34.00;20.20;;;;;;5031211;28;20415;-77
2023/07/09 11:24:02;;;;;;;10.77;3.42;;;34.00;21.10;;;;;;5031319;28;20029;-77
2023/07/09 11:26:36;;;;;;;6.45;3.60;;;34.10;21.00;;;;;;5031849;28;20105;-80
2023/07/09 11:29:02;;;;;;;3.85;2.60;;;34.10;19.90;;;;;;5031301;28;20049;-75
2023/07/09 11:31:36;;;;;;;5.78;3.25;;;34.20;20.00;;;;;;5031412;28;20028;-78
2023/07/09 11:34:14;;;;;;;5.25;3.47;;;34.40;19.40;;;;;;5029823;28;20030;-75
2023/07/09 11:36:55;;;;;;;8.60;3.50;;;34.40;18.80;;;;;;5029751;28;20032;-81
2023/07/09 11:39:41;;;;;;;7.97;3.60;;;34.40;19.60;;;;;;5031105;28;20385;-72
2023/07/09 11:42:24;;;;;;;6.25;3.22;;;34.50;18.60;;;;;;5030848;28;20489;-72
2023/07/09 11:44:56;;;;;;;6.43;3.25;;;34.60;18.60;;;;;;5031157;28;20029;-72
2023/07/09 11:47:45;;;;;;;5.90;3.20;;;34.70;18.20;;;;;;5030917;28;20093;-71
2023/07/09 11:50:29;;;;;;;6.97;3.72;;;34.70;17.30;;;;;;5030593;28;20028;-72
2023/07/09 11:53:11;;;;;;;10.27;3.40;;;34.90;18.10;;;;;;5029328;28;20029;-72
2023/07/09 11:55:40;;;;;;;6.07;3.35;;;34.90;17.10;;;;;;5030498;27;20030;-76
2023/07/09 11:58:10;;;;;;;5.82;3.65;;;34.90;17.30;;;;;;5030611;28;20032;-73
2023/07/09 12:01:10;;;;;;;5.80;3.78;;;34.90;17.40;;;;;;5030760;28;20149;-79
2023/07/09 12:03:41;;;;;;;5.78;2.65;;;35.10;18.30;;;;;;5030583;27;20030;-81
2023/07/09 12:06:24;;;;;;;9.20;3.25;;;35.40;18.00;;;;;;5029551;28;20439;-81
2023/07/09 12:08:51;;;;;;;5.45;2.72;;;35.50;18.00;;;;;;5030717;28;20033;-80
2023/07/09 12:11:20;;;;;;;6.03;3.45;;;35.60;17.30;;;;;;5030631;28;20033;-80
2023/07/09 12:13:46;;;;;;;3.50;3.10;;;35.70;16.90;;;;;;5030693;28;20025;-74
2023/07/09 12:16:28;;;;;;;5.97;3.20;;;35.70;17.30;;;;;;5030732;28;20497;-79
2023/07/09 12:18:53;;;;;;;4.20;2.70;;;35.80;17.20;;;;;;5030306;28;20116;-77
2023/07/09 12:21:19;;;;;;;5.10;2.58;;;35.90;16.80;;;;;;5029716;28;20100;-74
2023/07/09 12:23:45;;;;;;;5.38;3.20;;;36.10;17.30;;;;;;5030529;28;20025;-71
2023/07/09 12:26:17;;;;;;;5.57;3.05;;;36.30;17.10;;;;;;5030481;28;20541;-72
2023/07/09 12:28:42;;;;;;;3.35;3.05;;;36.50;15.80;;;;;;5030240;28;20102;-71
2023/07/09 12:31:15;;;;;;;6.10;3.35;;;36.60;15.40;;;;;;5030470;28;20470;-77
2023/07/09 12:33:54;;;;;;;4.32;2.80;;;36.70;15.20;;;;;;5030229;28;20025;-71
2023/07/09 12:36:20;;;;;;;5.57;3.25;;;36.70;15.20;;;;;;5030229;28;20469;-72
2023/07/09 12:38:49;;;;;;;5.57;3.25;;;36.70;15.10;;;;;;5030540;28;20042;-73
2023/07/09 12:41:23;;;;;;;6.32;3.08;;;36.80;15.50;;;;;;5029953;28;20018;-72
2023/07/09 12:43:50;;;;;;;7.07;3.40;;;37.10;15.40;;;;;;5030521;28;20045;-72
2023/07/09 12:46:16;;;;;;;5.55;3.17;;;37.10;15.60;;;;;;5030120;28;20053;-73
2023/07/09 12:48:43;;;;;;;7.43;2.95;;;36.90;14.90;;;;;;5029995;28;20490;-72
2023/07/09 12:51:09;;;;;;;5.95;3.55;;;36.60;15.90;;;;;;5030209;28;20029;-72
2023/07/09 12:53:37;;;;;;;6.18;3.30;;;36.40;15.70;;;;;;5030096;28;20507;-72
2023/07/09 12:56:07;;;;;;;7.68;3.58;;;36.40;16.50;;;;;;5029708;28;20017;-71
2023/07/09 12:58:37;;;;;;;8.98;3.63;;;36.60;16.50;;;;;;5029973;28;20026;-72